sensor_id;sensor_type;location;lat;lon;timestamp;P1;durP1;ratioP1;P2;durP2;ratioP2
57107;SDS011;42987;52.916;6.542;2022-08-01T00:01:56;21.80;;;17.02;;
57107;SDS011;42987;52.916;6.542;2022-08-01T00:04:22;45.90;;;22.70;;
57107;SDS011;42987;52.916;6.542;2022-08-01T00:06:48;36.38;;;18.02;;
57107;SDS011;42987;52.916;6.542;2022-08-01T00:09:13;42.78;;;22.33;;
57107;SDS011;42987;52.916;6.542;2022-08-01T00:11:39;24.05;;;17.55;;
57107;SDS011;42987;52.916;6.542;2022-08-01T00:14:06;37.60;;;20.48;;
57107;SDS011;42987;52.916;6.542;2022-08-01T00:16:36;23.73;;;16.65;;
57107;SDS011;42987;52.916;6.542;2022-08-01T00:19:02;25.40;;;18.00;;
57107;SDS011;42987;52.916;6.542;2022-08-01T00:21:31;46.75;;;22.05;;
57107;SDS011;42987;52.916;6.542;2022-08-01T00:23:57;54.30;;;22.58;;
57107;SDS011;42987;52.916;6.542;2022-08-01T00:26:24;30.85;;;18.05;;
57107;SDS011;42987;52.916;6.542;2022-08-01T00:28:53;51.17;;;19.35;;
57107;SDS011;42987;52.916;6.542;2022-08-01T00:31:18;33.65;;;19.73;;
57107;SDS011;42987;52.916;6.542;2022-08-01T00:33:44;18.65;;;14.88;;
57107;SDS011;42987;52.916;6.542;2022-08-01T00:36:10;17.38;;;13.98;;
57107;SDS011;42987;52.916;6.542;2022-08-01T00:38:38;67.30;;;23.02;;
57107;SDS011;42987;52.916;6.542;2022-08-01T00:41:04;17.23;;;13.30;;
57107;SDS011;42987;52.916;6.542;2022-08-01T00:43:30;21.55;;;15.38;;
57107;SDS011;42987;52.916;6.542;2022-08-01T00:45:56;36.95;;;17.30;;
57107;SDS011;42987;52.916;6.542;2022-08-01T00:48:22;26.02;;;15.75;;
57107;SDS011;42987;52.916;6.542;2022-08-01T00:50:48;23.15;;;14.45;;
57107;SDS011;42987;52.916;6.542;2022-08-01T00:53:17;17.00;;;12.77;;
57107;SDS011;42987;52.916;6.542;2022-08-01T00:55:43;16.55;;;12.52;;
57107;SDS011;42987;52.916;6.542;2022-08-01T00:58:09;14.90;;;11.70;;
57107;SDS011;42987;52.916;6.542;2022-08-01T01:00:35;36.65;;;17.25;;
57107;SDS011;42987;52.916;6.542;2022-08-01T01:03:01;17.45;;;12.88;;
57107;SDS011;42987;52.916;6.542;2022-08-01T01:05:27;15.68;;;13.05;;
57107;SDS011;42987;52.916;6.542;2022-08-01T01:07:56;68.35;;;20.00;;
57107;SDS011;42987;52.916;6.542;2022-08-01T01:13:13;17.58;;;13.15;;
57107;SDS011;42987;52.916;6.542;2022-08-01T01:18:20;33.50;;;17.10;;
57107;SDS011;42987;52.916;6.542;2022-08-01T01:24:25;17.13;;;10.40;;
57107;SDS011;42987;52.916;6.542;2022-08-01T01:29:25;11.45;;;8.65;;
57107;SDS011;42987;52.916;6.542;2022-08-01T01:32:06;28.98;;;11.68;;
57107;SDS011;42987;52.916;6.542;2022-08-01T01:34:38;10.20;;;7.10;;
57107;SDS011;42987;52.916;6.542;2022-08-01T01:37:08;12.30;;;7.45;;
57107;SDS011;42987;52.916;6.542;2022-08-01T01:39:40;9.23;;;5.88;;
57107;SDS011;42987;52.916;6.542;2022-08-01T01:42:07;9.75;;;5.65;;
57107;SDS011;42987;52.916;6.542;2022-08-01T01:44:35;6.07;;;4.43;;
57107;SDS011;42987;52.916;6.542;2022-08-01T01:47:02;9.52;;;4.95;;
57107;SDS011;42987;52.916;6.542;2022-08-01T01:49:29;11.82;;;6.20;;
57107;SDS011;42987;52.916;6.542;2022-08-01T01:51:57;5.97;;;3.88;;
57107;SDS011;42987;52.916;6.542;2022-08-01T01:54:24;12.00;;;5.97;;
57107;SDS011;42987;52.916;6.542;2022-08-01T01:56:56;6.20;;;4.60;;
57107;SDS011;42987;52.916;6.542;2022-08-01T01:59:25;9.88;;;5.53;;
57107;SDS011;42987;52.916;6.542;2022-08-01T02:01:54;10.95;;;6.18;;
57107;SDS011;42987;52.916;6.542;2022-08-01T02:04:22;12.52;;;7.63;;
57107;SDS011;42987;52.916;6.542;2022-08-01T02:06:51;8.52;;;6.03;;
57107;SDS011;42987;52.916;6.542;2022-08-01T02:09:21;10.80;;;7.10;;
57107;SDS011;42987;52.916;6.542;2022-08-01T02:11:49;6.63;;;5.45;;
57107;SDS011;42987;52.916;6.542;2022-08-01T02:14:17;12.55;;;7.55;;
57107;SDS011;42987;52.916;6.542;2022-08-01T02:16:45;11.55;;;7.60;;
57107;SDS011;42987;52.916;6.542;2022-08-01T02:19:13;7.30;;;6.22;;
57107;SDS011;42987;52.916;6.542;2022-08-01T02:21:49;8.20;;;7.25;;
57107;SDS011;42987;52.916;6.542;2022-08-01T02:24:18;13.85;;;8.73;;
57107;SDS011;42987;52.916;6.542;2022-08-01T02:26:47;6.57;;;5.78;;
57107;SDS011;42987;52.916;6.542;2022-08-01T02:29:26;15.85;;;9.32;;
57107;SDS011;42987;52.916;6.542;2022-08-01T02:31:55;7.43;;;5.93;;
57107;SDS011;42987;52.916;6.542;2022-08-01T02:34:21;11.77;;;8.00;;
57107;SDS011;42987;52.916;6.542;2022-08-01T02:36:49;24.33;;;11.55;;
57107;SDS011;42987;52.916;6.542;2022-08-01T02:39:17;8.93;;;6.03;;
57107;SDS011;42987;52.916;6.542;2022-08-01T02:41:46;10.35;;;8.15;;
57107;SDS011;42987;52.916;6.542;2022-08-01T02:44:23;9.27;;;5.20;;
57107;SDS011;42987;52.916;6.542;2022-08-01T02:46:52;8.43;;;3.83;;
57107;SDS011;42987;52.916;6.542;2022-08-01T02:49:23;8.82;;;4.63;;
57107;SDS011;42987;52.916;6.542;2022-08-01T02:51:51;7.68;;;4.22;;
57107;SDS011;42987;52.916;6.542;2022-08-01T02:54:19;9.45;;;3.92;;
57107;SDS011;42987;52.916;6.542;2022-08-01T02:56:47;8.13;;;3.83;;
57107;SDS011;42987;52.916;6.542;2022-08-01T02:59:16;11.02;;;5.45;;
57107;SDS011;42987;52.916;6.542;2022-08-01T03:01:48;10.18;;;4.50;;
57107;SDS011;42987;52.916;6.542;2022-08-01T03:04:16;9.35;;;4.40;;
57107;SDS011;42987;52.916;6.542;2022-08-01T03:06:43;11.43;;;5.47;;
57107;SDS011;42987;52.916;6.542;2022-08-01T03:09:11;9.55;;;4.43;;
57107;SDS011;42987;52.916;6.542;2022-08-01T03:11:38;10.25;;;4.30;;
57107;SDS011;42987;52.916;6.542;2022-08-01T03:14:07;7.25;;;3.92;;
57107;SDS011;42987;52.916;6.542;2022-08-01T03:16:35;10.90;;;5.13;;
57107;SDS011;42987;52.916;6.542;2022-08-01T03:19:04;9.93;;;3.70;;
57107;SDS011;42987;52.916;6.542;2022-08-01T03:21:31;8.38;;;4.00;;
57107;SDS011;42987;52.916;6.542;2022-08-01T03:23:59;8.77;;;3.72;;
57107;SDS011;42987;52.916;6.542;2022-08-01T03:26:27;8.02;;;5.40;;
57107;SDS011;42987;52.916;6.542;2022-08-01T03:28:56;9.75;;;4.03;;
57107;SDS011;42987;52.916;6.542;2022-08-01T03:31:25;9.90;;;4.30;;
57107;SDS011;42987;52.916;6.542;2022-08-01T03:33:51;10.23;;;4.00;;
57107;SDS011;42987;52.916;6.542;2022-08-01T03:36:21;8.13;;;3.42;;
57107;SDS011;42987;52.916;6.542;2022-08-01T03:41:20;8.80;;;3.92;;
57107;SDS011;42987;52.916;6.542;2022-08-01T03:43:51;8.82;;;3.88;;
57107;SDS011;42987;52.916;6.542;2022-08-01T03:46:42;7.68;;;4.05;;
57107;SDS011;42987;52.916;6.542;2022-08-01T03:49:13;8.90;;;4.40;;
57107;SDS011;42987;52.916;6.542;2022-08-01T03:51:44;12.98;;;4.95;;
57107;SDS011;42987;52.916;6.542;2022-08-01T03:54:14;9.93;;;4.20;;
57107;SDS011;42987;52.916;6.542;2022-08-01T03:56:45;12.80;;;5.47;;
57107;SDS011;42987;52.916;6.542;2022-08-01T03:59:14;12.30;;;4.43;;
57107;SDS011;42987;52.916;6.542;2022-08-01T04:01:41;13.45;;;6.13;;
57107;SDS011;42987;52.916;6.542;2022-08-01T04:04:08;11.40;;;4.72;;
57107;SDS011;42987;52.916;6.542;2022-08-01T04:06:36;11.90;;;4.45;;
57107;SDS011;42987;52.916;6.542;2022-08-01T04:09:03;10.40;;;5.00;;
57107;SDS011;42987;52.916;6.542;2022-08-01T04:11:32;11.07;;;4.15;;
57107;SDS011;42987;52.916;6.542;2022-08-01T04:13:58;12.45;;;4.63;;
57107;SDS011;42987;52.916;6.542;2022-08-01T04:16:24;14.23;;;4.65;;
57107;SDS011;42987;52.916;6.542;2022-08-01T04:18:50;11.23;;;4.97;;
57107;SDS011;42987;52.916;6.542;2022-08-01T04:21:18;12.45;;;5.25;;
57107;SDS011;42987;52.916;6.542;2022-08-01T04:23:48;17.65;;;6.43;;
57107;SDS011;42987;52.916;6.542;2022-08-01T04:26:17;10.98;;;4.57;;
57107;SDS011;42987;52.916;6.542;2022-08-01T04:28:44;16.58;;;7.75;;
57107;SDS011;42987;52.916;6.542;2022-08-01T04:31:11;12.05;;;6.25;;
57107;SDS011;42987;52.916;6.542;2022-08-01T04:33:41;16.63;;;6.70;;
57107;SDS011;42987;52.916;6.542;2022-08-01T04:36:10;11.48;;;5.22;;
57107;SDS011;42987;52.916;6.542;2022-08-01T04:38:38;12.85;;;5.00;;
57107;SDS011;42987;52.916;6.542;2022-08-01T04:41:06;16.92;;;6.13;;
57107;SDS011;42987;52.916;6.542;2022-08-01T04:43:34;16.80;;;6.43;;
57107;SDS011;42987;52.916;6.542;2022-08-01T04:46:05;12.13;;;5.57;;
57107;SDS011;42987;52.916;6.542;2022-08-01T04:48:32;15.60;;;5.60;;
57107;SDS011;42987;52.916;6.542;2022-08-01T04:51:01;11.90;;;4.93;;
57107;SDS011;42987;52.916;6.542;2022-08-01T04:53:28;9.60;;;4.70;;
57107;SDS011;42987;52.916;6.542;2022-08-01T04:55:54;15.52;;;5.68;;
57107;SDS011;42987;52.916;6.542;2022-08-01T04:58:20;13.23;;;5.53;;
57107;SDS011;42987;52.916;6.542;2022-08-01T05:00:47;14.05;;;5.53;;
57107;SDS011;42987;52.916;6.542;2022-08-01T05:03:12;14.05;;;5.20;;
57107;SDS011;42987;52.916;6.542;2022-08-01T05:05:41;14.00;;;5.00;;
57107;SDS011;42987;52.916;6.542;2022-08-01T05:08:07;14.40;;;5.35;;
57107;SDS011;42987;52.916;6.542;2022-08-01T05:10:33;15.38;;;4.97;;
57107;SDS011;42987;52.916;6.542;2022-08-01T05:12:58;14.10;;;5.07;;
57107;SDS011;42987;52.916;6.542;2022-08-01T05:15:24;14.18;;;5.30;;
57107;SDS011;42987;52.916;6.542;2022-08-01T05:17:50;14.52;;;5.30;;
57107;SDS011;42987;52.916;6.542;2022-08-01T05:20:16;11.95;;;4.55;;
57107;SDS011;42987;52.916;6.542;2022-08-01T05:22:42;11.65;;;5.00;;
57107;SDS011;42987;52.916;6.542;2022-08-01T05:25:07;11.20;;;4.22;;
57107;SDS011;42987;52.916;6.542;2022-08-01T05:27:33;9.65;;;4.13;;
57107;SDS011;42987;52.916;6.542;2022-08-01T05:30:05;20.77;;;5.10;;
57107;SDS011;42987;52.916;6.542;2022-08-01T05:32:32;12.02;;;4.82;;
57107;SDS011;42987;52.916;6.542;2022-08-01T05:34:58;12.15;;;5.40;;
57107;SDS011;42987;52.916;6.542;2022-08-01T05:37:24;13.70;;;5.13;;
57107;SDS011;42987;52.916;6.542;2022-08-01T05:39:50;13.50;;;5.72;;
57107;SDS011;42987;52.916;6.542;2022-08-01T05:42:16;10.63;;;4.40;;
57107;SDS011;42987;52.916;6.542;2022-08-01T05:44:42;11.70;;;4.60;;
57107;SDS011;42987;52.916;6.542;2022-08-01T05:47:07;15.95;;;5.95;;
57107;SDS011;42987;52.916;6.542;2022-08-01T05:49:36;12.87;;;5.30;;
57107;SDS011;42987;52.916;6.542;2022-08-01T05:52:02;15.93;;;5.80;;
57107;SDS011;42987;52.916;6.542;2022-08-01T05:54:30;14.60;;;4.97;;
57107;SDS011;42987;52.916;6.542;2022-08-01T05:56:56;15.82;;;5.63;;
57107;SDS011;42987;52.916;6.542;2022-08-01T05:59:25;12.30;;;4.72;;
57107;SDS011;42987;52.916;6.542;2022-08-01T06:01:51;11.13;;;4.63;;
57107;SDS011;42987;52.916;6.542;2022-08-01T06:04:17;15.10;;;4.80;;
57107;SDS011;42987;52.916;6.542;2022-08-01T06:06:42;12.55;;;6.03;;
57107;SDS011;42987;52.916;6.542;2022-08-01T06:09:08;12.43;;;4.90;;
57107;SDS011;42987;52.916;6.542;2022-08-01T06:11:34;9.98;;;4.65;;
57107;SDS011;42987;52.916;6.542;2022-08-01T06:14:00;12.98;;;4.90;;
57107;SDS011;42987;52.916;6.542;2022-08-01T06:16:26;11.85;;;4.53;;
57107;SDS011;42987;52.916;6.542;2022-08-01T06:18:52;15.73;;;5.93;;
57107;SDS011;42987;52.916;6.542;2022-08-01T06:21:21;16.33;;;6.28;;
57107;SDS011;42987;52.916;6.542;2022-08-01T06:23:46;13.75;;;4.75;;
57107;SDS011;42987;52.916;6.542;2022-08-01T06:26:12;16.13;;;4.78;;
57107;SDS011;42987;52.916;6.542;2022-08-01T06:28:38;12.02;;;4.10;;
57107;SDS011;42987;52.916;6.542;2022-08-01T06:31:04;18.52;;;5.00;;
57107;SDS011;42987;52.916;6.542;2022-08-01T06:33:30;16.98;;;4.75;;
57107;SDS011;42987;52.916;6.542;2022-08-01T06:35:56;22.73;;;5.45;;
57107;SDS011;42987;52.916;6.542;2022-08-01T06:38:25;18.73;;;5.38;;
57107;SDS011;42987;52.916;6.542;2022-08-01T06:40:51;20.40;;;5.00;;
57107;SDS011;42987;52.916;6.542;2022-08-01T06:43:17;18.98;;;5.60;;
57107;SDS011;42987;52.916;6.542;2022-08-01T06:45:44;17.55;;;5.50;;
57107;SDS011;42987;52.916;6.542;2022-08-01T06:48:10;19.45;;;4.78;;
57107;SDS011;42987;52.916;6.542;2022-08-01T06:50:35;19.45;;;4.97;;
57107;SDS011;42987;52.916;6.542;2022-08-01T06:53:02;20.40;;;5.80;;
57107;SDS011;42987;52.916;6.542;2022-08-01T06:55:28;15.73;;;4.72;;
57107;SDS011;42987;52.916;6.542;2022-08-01T06:57:57;20.77;;;5.32;;
57107;SDS011;42987;52.916;6.542;2022-08-01T07:00:23;17.58;;;5.10;;
57107;SDS011;42987;52.916;6.542;2022-08-01T07:02:54;21.88;;;5.00;;
57107;SDS011;42987;52.916;6.542;2022-08-01T07:05:21;19.35;;;5.32;;
57107;SDS011;42987;52.916;6.542;2022-08-01T07:07:50;22.02;;;5.25;;
57107;SDS011;42987;52.916;6.542;2022-08-01T07:10:16;18.48;;;5.88;;
57107;SDS011;42987;52.916;6.542;2022-08-01T07:12:42;20.30;;;5.28;;
57107;SDS011;42987;52.916;6.542;2022-08-01T07:15:08;18.63;;;5.10;;
57107;SDS011;42987;52.916;6.542;2022-08-01T07:17:38;19.50;;;4.72;;
57107;SDS011;42987;52.916;6.542;2022-08-01T07:20:09;19.38;;;4.75;;
57107;SDS011;42987;52.916;6.542;2022-08-01T07:22:37;20.63;;;4.88;;
57107;SDS011;42987;52.916;6.542;2022-08-01T07:25:04;16.55;;;5.15;;
57107;SDS011;42987;52.916;6.542;2022-08-01T07:27:31;21.40;;;5.50;;
57107;SDS011;42987;52.916;6.542;2022-08-01T07:29:57;16.50;;;4.47;;
57107;SDS011;42987;52.916;6.542;2022-08-01T07:32:23;17.33;;;4.55;;
57107;SDS011;42987;52.916;6.542;2022-08-01T07:34:50;15.38;;;4.85;;
57107;SDS011;42987;52.916;6.542;2022-08-01T07:37:15;16.15;;;5.13;;
57107;SDS011;42987;52.916;6.542;2022-08-01T07:39:41;17.08;;;5.18;;
57107;SDS011;42987;52.916;6.542;2022-08-01T07:42:07;15.85;;;4.18;;
57107;SDS011;42987;52.916;6.542;2022-08-01T07:44:33;17.50;;;4.78;;
57107;SDS011;42987;52.916;6.542;2022-08-01T07:47:00;16.45;;;4.25;;
57107;SDS011;42987;52.916;6.542;2022-08-01T07:49:29;14.77;;;4.37;;
57107;SDS011;42987;52.916;6.542;2022-08-01T07:51:55;15.65;;;3.92;;
57107;SDS011;42987;52.916;6.542;2022-08-01T07:54:21;15.60;;;4.45;;
57107;SDS011;42987;52.916;6.542;2022-08-01T07:56:49;14.27;;;4.07;;
57107;SDS011;42987;52.916;6.542;2022-08-01T07:59:15;13.82;;;3.58;;
57107;SDS011;42987;52.916;6.542;2022-08-01T08:01:47;13.75;;;3.38;;
57107;SDS011;42987;52.916;6.542;2022-08-01T08:04:16;14.63;;;4.32;;
57107;SDS011;42987;52.916;6.542;2022-08-01T08:06:43;17.55;;;4.38;;
57107;SDS011;42987;52.916;6.542;2022-08-01T08:09:09;19.95;;;3.60;;
57107;SDS011;42987;52.916;6.542;2022-08-01T08:11:36;20.20;;;4.15;;
57107;SDS011;42987;52.916;6.542;2022-08-01T08:14:02;12.20;;;3.70;;
57107;SDS011;42987;52.916;6.542;2022-08-01T08:16:28;14.50;;;3.67;;
57107;SDS011;42987;52.916;6.542;2022-08-01T08:18:54;16.58;;;3.67;;
57107;SDS011;42987;52.916;6.542;2022-08-01T08:21:19;16.38;;;3.60;;
57107;SDS011;42987;52.916;6.542;2022-08-01T08:23:45;13.55;;;3.88;;
57107;SDS011;42987;52.916;6.542;2022-08-01T08:26:29;16.55;;;3.58;;
57107;SDS011;42987;52.916;6.542;2022-08-01T08:28:55;15.77;;;3.72;;
57107;SDS011;42987;52.916;6.542;2022-08-01T08:31:21;14.52;;;3.45;;
57107;SDS011;42987;52.916;6.542;2022-08-01T08:33:50;15.98;;;4.15;;
57107;SDS011;42987;52.916;6.542;2022-08-01T08:36:16;9.90;;;2.50;;
57107;SDS011;42987;52.916;6.542;2022-08-01T08:38:42;13.80;;;3.22;;
57107;SDS011;42987;52.916;6.542;2022-08-01T08:41:08;11.77;;;3.55;;
57107;SDS011;42987;52.916;6.542;2022-08-01T08:43:34;10.90;;;3.20;;
57107;SDS011;42987;52.916;6.542;2022-08-01T08:46:01;12.40;;;3.40;;
57107;SDS011;42987;52.916;6.542;2022-08-01T08:48:27;12.90;;;3.58;;
57107;SDS011;42987;52.916;6.542;2022-08-01T08:50:55;10.80;;;2.63;;
57107;SDS011;42987;52.916;6.542;2022-08-01T08:53:22;10.77;;;2.60;;
57107;SDS011;42987;52.916;6.542;2022-08-01T08:55:48;12.05;;;3.10;;
57107;SDS011;42987;52.916;6.542;2022-08-01T09:01:04;8.50;;;2.50;;
57107;SDS011;42987;52.916;6.542;2022-08-01T09:03:32;12.77;;;3.00;;
57107;SDS011;42987;52.916;6.542;2022-08-01T09:05:58;13.30;;;2.95;;
57107;SDS011;42987;52.916;6.542;2022-08-01T09:08:24;10.00;;;2.42;;
57107;SDS011;42987;52.916;6.542;2022-08-01T09:10:49;11.45;;;2.80;;
57107;SDS011;42987;52.916;6.542;2022-08-01T09:13:15;12.35;;;2.70;;
57107;SDS011;42987;52.916;6.542;2022-08-01T09:18:26;10.07;;;2.40;;
57107;SDS011;42987;52.916;6.542;2022-08-01T09:21:17;9.45;;;2.88;;
57107;SDS011;42987;52.916;6.542;2022-08-01T09:23:46;10.52;;;2.58;;
57107;SDS011;42987;52.916;6.542;2022-08-01T09:26:15;9.97;;;2.20;;
57107;SDS011;42987;52.916;6.542;2022-08-01T09:28:46;9.10;;;2.40;;
57107;SDS011;42987;52.916;6.542;2022-08-01T09:31:17;8.63;;;2.08;;
57107;SDS011;42987;52.916;6.542;2022-08-01T09:33:50;11.73;;;2.40;;
57107;SDS011;42987;52.916;6.542;2022-08-01T09:36:18;12.75;;;3.05;;
57107;SDS011;42987;52.916;6.542;2022-08-01T09:38:48;9.13;;;2.17;;
57107;SDS011;42987;52.916;6.542;2022-08-01T09:41:15;9.52;;;2.13;;
57107;SDS011;42987;52.916;6.542;2022-08-01T09:43:41;8.45;;;2.20;;
57107;SDS011;42987;52.916;6.542;2022-08-01T09:46:14;9.07;;;2.67;;
57107;SDS011;42987;52.916;6.542;2022-08-01T09:48:56;8.30;;;2.25;;
57107;SDS011;42987;52.916;6.542;2022-08-01T09:56:25;11.40;;;2.95;;
57107;SDS011;42987;52.916;6.542;2022-08-01T09:58:55;8.48;;;2.28;;
57107;SDS011;42987;52.916;6.542;2022-08-01T10:01:23;10.48;;;2.10;;
57107;SDS011;42987;52.916;6.542;2022-08-01T10:04:06;8.50;;;1.80;;
57107;SDS011;42987;52.916;6.542;2022-08-01T10:06:40;7.63;;;2.00;;
57107;SDS011;42987;52.916;6.542;2022-08-01T10:09:09;12.95;;;2.35;;
57107;SDS011;42987;52.916;6.542;2022-08-01T10:11:36;6.97;;;1.98;;
57107;SDS011;42987;52.916;6.542;2022-08-01T10:14:04;7.72;;;1.50;;
57107;SDS011;42987;52.916;6.542;2022-08-01T10:16:32;6.93;;;1.48;;
57107;SDS011;42987;52.916;6.542;2022-08-01T10:19:01;7.03;;;1.83;;
57107;SDS011;42987;52.916;6.542;2022-08-01T10:21:30;7.28;;;1.73;;
57107;SDS011;42987;52.916;6.542;2022-08-01T10:24:02;8.90;;;2.03;;
57107;SDS011;42987;52.916;6.542;2022-08-01T10:26:29;8.55;;;1.90;;
57107;SDS011;42987;52.916;6.542;2022-08-01T10:28:58;6.45;;;1.60;;
57107;SDS011;42987;52.916;6.542;2022-08-01T10:31:25;8.38;;;1.25;;
57107;SDS011;42987;52.916;6.542;2022-08-01T10:33:55;10.52;;;2.60;;
57107;SDS011;42987;52.916;6.542;2022-08-01T10:36:23;7.03;;;1.70;;
57107;SDS011;42987;52.916;6.542;2022-08-01T10:38:50;7.90;;;1.50;;
57107;SDS011;42987;52.916;6.542;2022-08-01T10:41:16;6.78;;;1.70;;
57107;SDS011;42987;52.916;6.542;2022-08-01T10:43:44;7.18;;;1.58;;
57107;SDS011;42987;52.916;6.542;2022-08-01T10:46:10;5.38;;;1.65;;
57107;SDS011;42987;52.916;6.542;2022-08-01T10:51:08;9.32;;;1.70;;
57107;SDS011;42987;52.916;6.542;2022-08-01T10:53:34;9.00;;;1.60;;
57107;SDS011;42987;52.916;6.542;2022-08-01T10:56:01;8.00;;;1.58;;
57107;SDS011;42987;52.916;6.542;2022-08-01T11:07:03;7.50;;;2.28;;
57107;SDS011;42987;52.916;6.542;2022-08-01T11:09:44;8.35;;;1.63;;
57107;SDS011;42987;52.916;6.542;2022-08-01T11:12:13;6.65;;;1.75;;
57107;SDS011;42987;52.916;6.542;2022-08-01T11:17:56;4.95;;;1.60;;
57107;SDS011;42987;52.916;6.542;2022-08-01T11:20:20;7.15;;;1.70;;
57107;SDS011;42987;52.916;6.542;2022-08-01T11:30:40;8.80;;;1.92;;
57107;SDS011;42987;52.916;6.542;2022-08-01T11:33:06;7.35;;;2.15;;
57107;SDS011;42987;52.916;6.542;2022-08-01T11:35:32;7.82;;;1.50;;
57107;SDS011;42987;52.916;6.542;2022-08-01T11:44:03;7.82;;;2.13;;
57107;SDS011;42987;52.916;6.542;2022-08-01T11:47:15;6.13;;;1.52;;
57107;SDS011;42987;52.916;6.542;2022-08-01T11:54:40;9.18;;;1.92;;
57107;SDS011;42987;52.916;6.542;2022-08-01T11:57:12;7.43;;;1.80;;
57107;SDS011;42987;52.916;6.542;2022-08-01T12:02:34;6.57;;;1.38;;
57107;SDS011;42987;52.916;6.542;2022-08-01T12:07:28;7.18;;;1.50;;
57107;SDS011;42987;52.916;6.542;2022-08-01T12:10:05;6.43;;;1.30;;
57107;SDS011;42987;52.916;6.542;2022-08-01T12:12:34;7.30;;;1.90;;
57107;SDS011;42987;52.916;6.542;2022-08-01T12:15:03;8.82;;;1.70;;
57107;SDS011;42987;52.916;6.542;2022-08-01T12:17:31;7.38;;;1.80;;
57107;SDS011;42987;52.916;6.542;2022-08-01T12:20:03;7.43;;;1.77;;
57107;SDS011;42987;52.916;6.542;2022-08-01T12:22:30;6.13;;;1.58;;
57107;SDS011;42987;52.916;6.542;2022-08-01T12:24:56;7.15;;;1.30;;
57107;SDS011;42987;52.916;6.542;2022-08-01T12:27:31;7.22;;;1.60;;
57107;SDS011;42987;52.916;6.542;2022-08-01T12:29:58;6.82;;;1.45;;
57107;SDS011;42987;52.916;6.542;2022-08-01T12:32:25;7.13;;;1.40;;
57107;SDS011;42987;52.916;6.542;2022-08-01T12:34:53;6.15;;;1.52;;
57107;SDS011;42987;52.916;6.542;2022-08-01T12:37:22;7.35;;;1.60;;
57107;SDS011;42987;52.916;6.542;2022-08-01T12:39:51;9.32;;;1.92;;
57107;SDS011;42987;52.916;6.542;2022-08-01T12:42:18;5.28;;;1.98;;
57107;SDS011;42987;52.916;6.542;2022-08-01T12:44:45;8.73;;;2.20;;
57107;SDS011;42987;52.916;6.542;2022-08-01T12:47:14;7.88;;;1.38;;
57107;SDS011;42987;52.916;6.542;2022-08-01T12:49:41;6.80;;;1.40;;
57107;SDS011;42987;52.916;6.542;2022-08-01T12:52:08;8.40;;;1.30;;
57107;SDS011;42987;52.916;6.542;2022-08-01T12:57:27;9.90;;;1.45;;
57107;SDS011;42987;52.916;6.542;2022-08-01T12:59:53;7.40;;;1.77;;
57107;SDS011;42987;52.916;6.542;2022-08-01T13:02:40;5.07;;;1.20;;
57107;SDS011;42987;52.916;6.542;2022-08-01T13:05:07;7.10;;;1.35;;
57107;SDS011;42987;52.916;6.542;2022-08-01T13:07:41;5.70;;;1.20;;
57107;SDS011;42987;52.916;6.542;2022-08-01T13:10:13;6.13;;;1.40;;
57107;SDS011;42987;52.916;6.542;2022-08-01T13:12:40;7.07;;;1.52;;
57107;SDS011;42987;52.916;6.542;2022-08-01T13:15:20;6.93;;;1.30;;
57107;SDS011;42987;52.916;6.542;2022-08-01T13:17:49;6.13;;;1.48;;
57107;SDS011;42987;52.916;6.542;2022-08-01T13:20:32;6.68;;;1.55;;
57107;SDS011;42987;52.916;6.542;2022-08-01T13:23:15;6.82;;;2.08;;
57107;SDS011;42987;52.916;6.542;2022-08-01T13:26:01;8.20;;;1.45;;
57107;SDS011;42987;52.916;6.542;2022-08-01T13:28:27;6.63;;;1.70;;
57107;SDS011;42987;52.916;6.542;2022-08-01T13:31:01;5.18;;;1.50;;
57107;SDS011;42987;52.916;6.542;2022-08-01T13:33:28;9.38;;;2.10;;
57107;SDS011;42987;52.916;6.542;2022-08-01T13:36:06;6.70;;;1.30;;
57107;SDS011;42987;52.916;6.542;2022-08-01T13:38:32;6.50;;;1.83;;
57107;SDS011;42987;52.916;6.542;2022-08-01T13:41:16;7.15;;;1.70;;
57107;SDS011;42987;52.916;6.542;2022-08-01T13:43:42;7.13;;;1.10;;
57107;SDS011;42987;52.916;6.542;2022-08-01T13:46:08;6.07;;;1.52;;
57107;SDS011;42987;52.916;6.542;2022-08-01T13:48:34;5.68;;;1.30;;
57107;SDS011;42987;52.916;6.542;2022-08-01T13:51:00;7.30;;;1.60;;
57107;SDS011;42987;52.916;6.542;2022-08-01T13:53:26;6.65;;;1.30;;
57107;SDS011;42987;52.916;6.542;2022-08-01T13:55:55;7.90;;;1.15;;
57107;SDS011;42987;52.916;6.542;2022-08-01T13:58:21;7.97;;;1.45;;
57107;SDS011;42987;52.916;6.542;2022-08-01T14:00:46;5.47;;;1.50;;
57107;SDS011;42987;52.916;6.542;2022-08-01T14:03:13;6.38;;;1.40;;
57107;SDS011;42987;52.916;6.542;2022-08-01T14:05:39;5.20;;;1.20;;
57107;SDS011;42987;52.916;6.542;2022-08-01T14:08:05;5.60;;;1.17;;
57107;SDS011;42987;52.916;6.542;2022-08-01T14:10:31;6.95;;;1.60;;
57107;SDS011;42987;52.916;6.542;2022-08-01T14:12:57;6.65;;;1.10;;
57107;SDS011;42987;52.916;6.542;2022-08-01T14:18:09;7.95;;;1.60;;
57107;SDS011;42987;52.916;6.542;2022-08-01T14:20:35;4.18;;;1.13;;
57107;SDS011;42987;52.916;6.542;2022-08-01T14:23:02;7.60;;;1.20;;
57107;SDS011;42987;52.916;6.542;2022-08-01T14:25:28;6.57;;;1.20;;
57107;SDS011;42987;52.916;6.542;2022-08-01T14:27:57;8.13;;;1.33;;
57107;SDS011;42987;52.916;6.542;2022-08-01T14:30:22;5.68;;;1.20;;
57107;SDS011;42987;52.916;6.542;2022-08-01T14:32:48;5.60;;;1.10;;
57107;SDS011;42987;52.916;6.542;2022-08-01T14:35:14;5.55;;;1.45;;
57107;SDS011;42987;52.916;6.542;2022-08-01T14:37:40;5.40;;;1.80;;
57107;SDS011;42987;52.916;6.542;2022-08-01T14:40:06;5.55;;;1.13;;
57107;SDS011;42987;52.916;6.542;2022-08-01T14:42:34;4.72;;;1.00;;
57107;SDS011;42987;52.916;6.542;2022-08-01T14:45:01;4.45;;;1.10;;
57107;SDS011;42987;52.916;6.542;2022-08-01T14:50:14;4.90;;;1.02;;
57107;SDS011;42987;52.916;6.542;2022-08-01T14:52:41;5.65;;;1.33;;
57107;SDS011;42987;52.916;6.542;2022-08-01T14:55:08;3.38;;;0.85;;
57107;SDS011;42987;52.916;6.542;2022-08-01T14:57:35;7.32;;;1.20;;
57107;SDS011;42987;52.916;6.542;2022-08-01T15:00:03;6.90;;;1.23;;
57107;SDS011;42987;52.916;6.542;2022-08-01T15:02:33;4.60;;;1.13;;
57107;SDS011;42987;52.916;6.542;2022-08-01T15:04:59;6.67;;;1.23;;
57107;SDS011;42987;52.916;6.542;2022-08-01T15:07:25;4.30;;;1.00;;
57107;SDS011;42987;52.916;6.542;2022-08-01T15:09:53;6.50;;;0.90;;
57107;SDS011;42987;52.916;6.542;2022-08-01T15:12:19;4.33;;;1.13;;
57107;SDS011;42987;52.916;6.542;2022-08-01T15:14:45;6.20;;;1.33;;
57107;SDS011;42987;52.916;6.542;2022-08-01T15:19:51;5.35;;;1.17;;
57107;SDS011;42987;52.916;6.542;2022-08-01T15:22:21;3.20;;;1.05;;
57107;SDS011;42987;52.916;6.542;2022-08-01T15:24:52;5.07;;;1.00;;
57107;SDS011;42987;52.916;6.542;2022-08-01T15:27:19;5.30;;;1.02;;
57107;SDS011;42987;52.916;6.542;2022-08-01T15:29:49;6.13;;;1.02;;
57107;SDS011;42987;52.916;6.542;2022-08-01T15:32:15;5.18;;;1.17;;
57107;SDS011;42987;52.916;6.542;2022-08-01T15:34:42;5.03;;;0.95;;
57107;SDS011;42987;52.916;6.542;2022-08-01T15:37:09;3.83;;;1.15;;
57107;SDS011;42987;52.916;6.542;2022-08-01T15:39:39;3.72;;;1.10;;
57107;SDS011;42987;52.916;6.542;2022-08-01T15:42:07;6.50;;;1.10;;
57107;SDS011;42987;52.916;6.542;2022-08-01T15:44:34;6.78;;;1.33;;
57107;SDS011;42987;52.916;6.542;2022-08-01T15:47:00;5.55;;;0.93;;
57107;SDS011;42987;52.916;6.542;2022-08-01T15:49:27;4.93;;;0.88;;
57107;SDS011;42987;52.916;6.542;2022-08-01T15:51:53;7.07;;;1.88;;
57107;SDS011;42987;52.916;6.542;2022-08-01T15:54:19;4.10;;;0.90;;
57107;SDS011;42987;52.916;6.542;2022-08-01T15:56:45;6.80;;;1.40;;
57107;SDS011;42987;52.916;6.542;2022-08-01T15:59:11;5.95;;;1.67;;
57107;SDS011;42987;52.916;6.542;2022-08-01T16:01:37;4.72;;;1.15;;